createdAt,value
2023-05-02T00:00:10.420Z,25.6466
2023-05-02T00:01:11.821Z,25.6509
2023-05-02T00:02:13.231Z,25.6616
2023-05-02T00:03:14.666Z,25.6740
2023-05-02T00:04:16.137Z,25.6444
2023-05-02T00:05:17.457Z,25.6390
2023-05-02T00:06:18.948Z,25.6489
2023-05-02T00:07:20.349Z,25.6618
2023-05-02T00:08:21.718Z,25.6692
2023-05-02T00:09:23.290Z,25.6682
2023-05-02T00:10:24.643Z,25.6583
2023-05-02T00:11:26.143Z,25.6608
2023-05-02T00:12:27.402Z,25.6588
2023-05-02T00:13:28.913Z,25.6768
2023-05-02T00:14:30.309Z,25.6664
2023-05-02T00:15:31.780Z,25.6828
2023-05-02T00:16:33.302Z,25.6822
2023-05-02T00:17:34.690Z,25.6906
2023-05-02T00:18:36.025Z,25.6651
2023-05-02T00:19:37.447Z,25.6717
2023-05-02T00:20:38.966Z,25.6760
2023-05-02T00:21:40.326Z,25.6994
2023-05-02T00:22:41.672Z,25.6996
2023-05-02T00:23:43.118Z,25.6918
2023-05-02T00:24:44.518Z,25.7165
2023-05-02T00:25:46.007Z,25.7058
2023-05-02T00:26:47.463Z,25.6957
2023-05-02T00:27:48.797Z,25.6896
2023-05-02T00:28:50.145Z,25.6848
2023-05-02T00:29:51.671Z,25.6762
2023-05-02T00:30:53.090Z,25.6754
2023-05-02T00:31:54.569Z,25.6830
2023-05-02T00:32:55.973Z,25.6805
2023-05-02T00:33:57.390Z,25.6832
2023-05-02T00:34:58.766Z,25.6787
2023-05-02T00:36:00.210Z,25.6881
2023-05-02T00:37:01.600Z,25.6998
2023-05-02T00:38:03.102Z,25.6961
2023-05-02T00:39:04.409Z,25.6918
2023-05-02T00:40:05.889Z,25.6906
2023-05-02T00:41:07.237Z,25.6655
2023-05-02T00:42:08.694Z,25.6674
2023-05-02T00:43:10.098Z,25.6731
2023-05-02T00:44:11.537Z,25.6594
2023-05-02T00:45:12.920Z,25.6452
2023-05-02T00:46:14.374Z,25.6596
2023-05-02T00:47:15.793Z,25.6505
2023-05-02T00:48:17.205Z,25.6388
2023-05-02T00:49:18.541Z,25.6425
2023-05-02T00:50:20.036Z,25.6512
2023-05-02T00:51:21.418Z,25.6546
2023-05-02T00:52:22.931Z,25.6388
2023-05-02T00:53:24.264Z,25.6351
2023-05-02T00:54:25.726Z,25.6489
2023-05-02T00:55:27.103Z,25.6253
2023-05-02T00:56:28.545Z,25.6251
2023-05-02T00:57:30.006Z,25.6162
2023-05-02T00:58:31.418Z,25.6171
2023-05-02T00:59:32.798Z,25.6201
2023-05-02T01:00:34.246Z,25.6160
2023-05-02T01:01:35.576Z,25.6076
2023-05-02T01:02:37.279Z,25.6144
2023-05-02T01:03:38.590Z,25.6136
2023-05-02T01:04:39.980Z,25.6074
2023-05-02T01:05:41.329Z,25.6027
2023-05-02T01:06:42.898Z,25.6095
2023-05-02T01:07:44.179Z,25.5926
2023-05-02T01:08:45.600Z,25.5906
2023-05-02T01:09:46.991Z,25.5908
2023-05-02T01:10:48.416Z,25.5938
2023-05-02T01:11:49.820Z,25.5949
2023-05-02T01:12:51.307Z,25.5940
2023-05-02T01:13:52.662Z,25.6039
2023-05-02T01:14:54.134Z,25.5982
2023-05-02T01:15:55.506Z,25.6043
2023-05-02T01:16:56.996Z,25.5957
2023-05-02T01:17:58.499Z,25.5889
2023-05-02T01:18:59.818Z,25.6008
2023-05-02T01:20:01.331Z,25.5828
2023-05-02T01:21:02.657Z,25.5805
2023-05-02T01:22:04.066Z,25.5715
2023-05-02T01:23:05.456Z,25.5901
2023-05-02T01:24:06.863Z,25.5799
2023-05-02T01:25:08.178Z,25.5723
2023-05-02T01:26:09.715Z,25.5680
2023-05-02T01:27:11.105Z,25.5729
2023-05-02T01:28:12.595Z,25.5731
2023-05-02T01:29:13.859Z,25.5665
2023-05-02T01:30:15.400Z,25.5780
2023-05-02T01:31:16.826Z,25.5641
2023-05-02T01:32:18.250Z,25.5788
2023-05-02T01:33:19.684Z,25.5663
2023-05-02T01:34:21.091Z,25.5688
2023-05-02T01:35:22.402Z,25.5795
2023-05-02T01:36:23.943Z,25.5610
2023-05-02T01:37:25.328Z,25.5719
2023-05-02T01:38:26.842Z,25.5616
2023-05-02T01:39:28.122Z,25.5591
2023-05-02T01:40:29.585Z,25.5476
2023-05-02T01:41:30.974Z,25.5491
2023-05-02T01:42:32.423Z,25.5433
2023-05-02T01:43:33.834Z,25.5404
2023-05-02T01:44:35.260Z,25.5454
2023-05-02T01:45:36.621Z,25.5493
2023-05-02T01:46:38.176Z,25.5472
2023-05-02T01:47:39.509Z,25.5427
2023-05-02T01:48:40.975Z,25.5378
2023-05-02T01:49:42.342Z,25.5361
2023-05-02T01:50:43.800Z,25.5526
2023-05-02T01:51:45.117Z,25.5452
2023-05-02T01:52:46.641Z,25.5480
2023-05-02T01:53:48.094Z,25.5417
2023-05-02T01:54:49.469Z,25.5363
2023-05-02T01:55:50.844Z,25.5371
2023-05-02T01:56:52.310Z,25.5390
2023-05-02T01:57:53.693Z,25.5347
2023-05-02T01:58:55.190Z,25.5312
2023-05-02T01:59:56.580Z,25.5271
2023-05-02T02:00:58.022Z,25.5295
2023-05-02T02:01:59.362Z,25.5298
2023-05-02T02:03:00.808Z,25.5252
2023-05-02T02:04:02.339Z,25.5244
2023-05-02T02:05:03.699Z,25.5141
2023-05-02T02:06:05.127Z,25.5246
2023-05-02T02:07:06.650Z,25.5295
2023-05-02T02:08:07.948Z,25.5238
2023-05-02T02:09:09.462Z,25.5086
2023-05-02T02:10:10.788Z,25.5074
2023-05-02T02:11:12.235Z,25.5061
2023-05-02T02:12:13.652Z,25.4862
2023-05-02T02:13:15.147Z,25.5039
2023-05-02T02:14:16.499Z,25.4909
2023-05-02T02:15:17.968Z,25.4870
2023-05-02T02:16:19.400Z,25.5109
2023-05-02T02:17:20.762Z,25.5205
2023-05-02T02:18:22.159Z,25.5115
2023-05-02T02:19:23.664Z,25.5104
2023-05-02T02:20:25.068Z,25.5131
2023-05-02T02:21:26.434Z,25.5238
2023-05-02T02:22:27.852Z,25.5240
2023-05-02T02:23:29.341Z,25.5189
2023-05-02T02:24:30.738Z,25.5219
2023-05-02T02:25:32.173Z,25.5162
2023-05-02T02:26:33.530Z,25.5104
2023-05-02T02:27:34.986Z,25.5109
2023-05-02T02:28:36.431Z,25.5059
2023-05-02T02:29:37.875Z,25.4971
2023-05-02T02:30:39.379Z,25.5121
2023-05-02T02:31:40.657Z,25.5158
2023-05-02T02:32:42.146Z,25.5063
2023-05-02T02:33:43.496Z,25.4774
2023-05-02T02:34:45.056Z,25.4909
2023-05-02T02:35:46.389Z,25.4946
2023-05-02T02:36:47.804Z,25.5049
2023-05-02T02:37:49.185Z,25.5092
2023-05-02T02:38:50.652Z,25.5061
2023-05-02T02:39:52.107Z,25.5228
2023-05-02T02:40:53.514Z,25.5174
2023-05-02T02:41:54.902Z,25.5160
2023-05-02T02:42:56.338Z,25.5207
2023-05-02T02:43:57.805Z,25.5219
2023-05-02T02:44:59.174Z,25.5164
2023-05-02T02:46:00.729Z,25.5267
2023-05-02T02:47:02.000Z,25.5279
2023-05-02T02:48:03.492Z,25.5137
2023-05-02T02:49:04.872Z,25.5125
2023-05-02T02:50:06.365Z,25.5100
2023-05-02T02:51:07.772Z,25.4957
2023-05-02T02:52:09.135Z,25.5185
2023-05-02T02:53:10.511Z,25.5193
2023-05-02T02:54:25.411Z,25.5176
2023-05-02T02:55:13.423Z,25.5158
2023-05-02T02:56:14.899Z,25.4887
2023-05-02T02:57:16.224Z,25.5035
2023-05-02T02:58:17.626Z,25.5170
2023-05-02T02:59:19.067Z,25.5298
2023-05-02T03:00:20.604Z,25.5285
2023-05-02T03:01:21.975Z,25.5238
2023-05-02T03:02:23.386Z,25.5248
2023-05-02T03:03:24.872Z,25.5300
2023-05-02T03:04:26.186Z,25.5334
2023-05-02T03:05:27.679Z,25.5030
2023-05-02T03:06:29.187Z,25.5195
2023-05-02T03:07:30.493Z,25.5326
2023-05-02T03:08:31.905Z,25.5244
2023-05-02T03:09:33.316Z,25.5275
2023-05-02T03:10:34.868Z,25.5302
2023-05-02T03:11:36.192Z,25.5302
2023-05-02T03:12:37.653Z,25.5312
2023-05-02T03:13:39.003Z,25.5281
2023-05-02T03:14:40.508Z,25.5193
2023-05-02T03:15:41.919Z,25.5172
2023-05-02T03:16:43.420Z,25.5174
2023-05-02T03:17:44.821Z,25.5201
2023-05-02T03:18:46.229Z,25.5300
2023-05-02T03:19:47.584Z,25.5318
2023-05-02T03:20:48.959Z,25.5314
2023-05-02T03:21:50.504Z,25.5408
2023-05-02T03:22:51.896Z,25.5413
2023-05-02T03:23:53.264Z,25.5334
2023-05-02T03:24:54.687Z,25.5267
2023-05-02T03:25:56.072Z,25.5310
2023-05-02T03:26:57.568Z,25.5343
2023-05-02T03:27:58.953Z,25.5328
2023-05-02T03:29:00.364Z,25.5322
2023-05-02T03:30:02.084Z,25.5376
2023-05-02T03:31:03.260Z,25.5261
2023-05-02T03:32:04.750Z,25.5250
2023-05-02T03:33:06.100Z,25.5244
2023-05-02T03:34:07.513Z,25.5252
2023-05-02T03:35:08.913Z,25.5273
2023-05-02T03:36:10.338Z,25.5244
2023-05-02T03:37:11.759Z,25.5226
2023-05-02T03:38:13.287Z,25.5279
2023-05-02T03:39:14.594Z,25.5308
2023-05-02T03:40:16.052Z,25.5302
2023-05-02T03:41:17.346Z,25.5302
2023-05-02T03:42:18.910Z,25.5339
2023-05-02T03:43:20.332Z,25.5308
2023-05-02T03:44:21.781Z,25.5367
2023-05-02T03:45:23.152Z,25.5308
2023-05-02T03:46:24.617Z,25.5263
2023-05-02T03:47:26.032Z,25.5306
2023-05-02T03:48:27.496Z,25.5349
2023-05-02T03:49:28.805Z,25.5256
2023-05-02T03:50:30.294Z,25.5277
2023-05-02T03:51:31.604Z,25.5261
2023-05-02T03:52:33.125Z,25.5302
2023-05-02T03:53:34.562Z,25.5357
2023-05-02T03:54:36.040Z,25.5261
2023-05-02T03:55:37.405Z,25.5261
2023-05-02T03:56:40.202Z,25.5295
2023-05-02T03:57:40.259Z,25.5269
2023-05-02T03:58:41.721Z,25.5197
2023-05-02T03:59:43.160Z,25.5182
2023-05-02T04:00:44.552Z,25.5156
2023-05-02T04:01:45.969Z,25.5113
2023-05-02T04:02:47.495Z,25.5180
2023-05-02T04:03:48.900Z,25.5197
2023-05-02T04:04:50.287Z,25.5279
2023-05-02T04:05:51.676Z,25.5219
2023-05-02T04:06:53.185Z,25.5224
2023-05-02T04:07:54.469Z,25.5217
2023-05-02T04:08:56.001Z,25.5242
2023-05-02T04:09:57.439Z,25.5254
2023-05-02T04:10:58.748Z,25.5217
2023-05-02T04:12:00.256Z,25.5254
2023-05-02T04:13:01.716Z,25.5291
2023-05-02T04:14:03.164Z,25.5219
2023-05-02T04:15:04.615Z,25.5222
2023-05-02T04:16:05.982Z,25.5263
2023-05-02T04:17:07.543Z,25.5201
2023-05-02T04:18:08.891Z,25.5240
2023-05-02T04:19:10.829Z,25.5158
2023-05-02T04:20:11.696Z,25.5133
2023-05-02T04:21:13.073Z,25.5125
2023-05-02T04:22:14.478Z,25.5096
2023-05-02T04:23:15.922Z,25.4979
2023-05-02T04:24:17.389Z,25.4957
2023-05-02T04:25:18.867Z,25.5098
2023-05-02T04:26:20.108Z,25.5043
2023-05-02T04:27:21.622Z,25.5160
2023-05-02T04:28:23.113Z,25.5185
2023-05-02T04:29:24.506Z,25.5129
2023-05-02T04:30:25.932Z,25.5168
2023-05-02T04:31:27.406Z,25.5195
2023-05-02T04:32:28.802Z,25.5217
2023-05-02T04:33:30.120Z,25.5121
2023-05-02T04:34:31.591Z,25.5133
2023-05-02T04:35:32.987Z,25.5166
2023-05-02T04:36:34.390Z,25.4979
2023-05-02T04:37:35.783Z,25.5080
2023-05-02T04:38:37.224Z,25.5078
2023-05-02T04:39:38.613Z,25.4977
2023-05-02T04:40:40.120Z,25.5000
2023-05-02T04:41:41.486Z,25.5135
2023-05-02T04:42:42.925Z,25.5141
2023-05-02T04:43:44.358Z,25.5117
2023-05-02T04:44:45.814Z,25.5051
2023-05-02T04:45:47.112Z,25.5035
2023-05-02T04:46:48.613Z,25.5049
2023-05-02T04:47:50.028Z,25.5185
2023-05-02T04:48:51.472Z,25.5150
2023-05-02T04:49:52.875Z,25.5263
2023-05-02T04:50:54.403Z,25.5217
2023-05-02T04:51:55.733Z,25.5312
2023-05-02T04:52:57.121Z,25.5322
2023-05-02T04:53:58.523Z,25.5240
2023-05-02T04:55:00.001Z,25.5189
2023-05-02T04:56:01.351Z,25.5295
2023-05-02T04:57:02.792Z,25.5351
2023-05-02T04:58:04.173Z,25.5345
2023-05-02T04:59:05.617Z,25.5343
2023-05-02T05:00:07.042Z,25.5439
2023-05-02T05:01:08.557Z,25.5515
2023-05-02T05:02:09.991Z,25.5433
2023-05-02T05:03:11.383Z,25.5470
2023-05-02T05:04:12.810Z,25.5374
2023-05-02T05:05:14.215Z,25.4807
2023-05-02T05:06:15.676Z,25.3188
2023-05-02T05:07:17.003Z,25.2529
2023-05-02T05:08:18.366Z,25.2399
2023-05-02T05:09:19.881Z,25.1571
2023-05-02T05:10:21.203Z,25.0801
2023-05-02T05:11:23.375Z,25.0805
2023-05-02T05:12:24.095Z,25.1325
2023-05-02T05:13:25.479Z,25.1195
2023-05-02T05:14:26.902Z,25.1048
2023-05-02T05:15:28.322Z,25.1150
2023-05-02T05:16:29.841Z,25.1629
2023-05-02T05:17:31.240Z,25.1912
2023-05-02T05:18:32.589Z,25.2198
2023-05-02T05:19:34.010Z,25.2496
2023-05-02T05:20:35.480Z,25.2578
2023-05-02T05:21:36.892Z,25.2568
2023-05-02T05:22:38.284Z,25.2658
2023-05-02T05:23:39.630Z,25.2886
2023-05-02T05:24:41.080Z,25.2997
2023-05-02T05:25:44.249Z,25.3149
2023-05-02T05:26:43.949Z,25.3344
2023-05-02T05:27:45.355Z,25.3453
2023-05-02T05:28:46.759Z,25.3465
2023-05-02T05:29:48.072Z,25.3626
2023-05-02T05:30:49.621Z,25.3648
2023-05-02T05:31:51.074Z,25.3305
2023-05-02T05:32:52.437Z,25.3182
2023-05-02T05:33:53.883Z,25.3153
2023-05-02T05:34:55.281Z,25.3057
2023-05-02T05:35:56.712Z,25.3122
2023-05-02T05:36:58.104Z,25.3280
2023-05-02T05:37:59.564Z,25.3334
2023-05-02T05:39:00.921Z,25.3566
2023-05-02T05:40:02.899Z,25.3626
2023-05-02T05:41:03.759Z,25.3607
2023-05-02T05:42:05.264Z,25.3572
2023-05-02T05:43:06.688Z,25.3780
2023-05-02T05:44:08.077Z,25.3827
2023-05-02T05:45:09.445Z,25.4098
2023-05-02T05:46:10.881Z,25.4441
2023-05-02T05:47:12.490Z,25.4250
2023-05-02T05:48:13.846Z,25.4488
2023-05-02T05:49:15.144Z,25.4435
2023-05-02T05:50:16.623Z,25.4416
2023-05-02T05:51:17.989Z,25.4422
2023-05-02T05:52:19.525Z,25.4599
2023-05-02T05:53:20.896Z,25.4753
2023-05-02T05:54:22.298Z,25.4862
2023-05-02T05:55:23.656Z,25.4770
2023-05-02T05:56:25.100Z,25.4692
2023-05-02T05:57:26.529Z,25.4778
2023-05-02T05:58:27.979Z,25.4759
2023-05-02T05:59:29.328Z,25.4714
2023-05-02T06:00:30.777Z,25.4932
2023-05-02T06:01:32.156Z,25.5002
2023-05-02T06:02:33.734Z,25.5078
2023-05-02T06:03:35.222Z,25.4961
2023-05-02T06:04:36.527Z,25.4926
2023-05-02T06:05:37.851Z,25.4918
2023-05-02T06:06:39.361Z,25.4924
2023-05-02T06:07:40.725Z,25.5035
2023-05-02T06:08:42.160Z,25.4794
2023-05-02T06:09:43.597Z,25.4932
2023-05-02T06:10:44.986Z,25.4983
2023-05-02T06:11:46.303Z,25.5045
2023-05-02T06:12:49.255Z,25.5084
2023-05-02T06:13:49.272Z,25.5160
2023-05-02T06:14:50.705Z,25.5174
2023-05-02T06:15:52.061Z,25.5090
2023-05-02T06:16:53.468Z,25.5168
2023-05-02T06:17:55.009Z,25.5191
2023-05-02T06:18:56.364Z,25.5127
2023-05-02T06:19:58.081Z,25.4985
2023-05-02T06:20:59.118Z,25.4969
2023-05-02T06:22:00.602Z,25.4973
2023-05-02T06:23:02.059Z,25.5080
2023-05-02T06:24:03.504Z,25.5014
2023-05-02T06:25:04.900Z,25.5028
2023-05-02T06:26:06.307Z,25.5008
2023-05-02T06:27:07.723Z,25.5004
2023-05-02T06:28:09.135Z,25.5051
2023-05-02T06:29:10.601Z,25.5030
2023-05-02T06:30:11.921Z,25.5037
2023-05-02T06:31:13.477Z,25.5020
2023-05-02T06:32:14.769Z,25.4965
2023-05-02T06:33:16.293Z,25.5047
2023-05-02T06:34:17.689Z,25.4796
2023-05-02T06:35:19.094Z,25.4735
2023-05-02T06:36:20.472Z,25.4792
2023-05-02T06:37:21.864Z,25.4667
2023-05-02T06:38:23.368Z,25.4751
2023-05-02T06:39:24.766Z,25.4934
2023-05-02T06:40:26.205Z,25.5010
2023-05-02T06:41:27.612Z,25.4885
2023-05-02T06:42:29.045Z,25.4883
2023-05-02T06:43:30.480Z,25.4889
2023-05-02T06:44:31.910Z,25.5240
2023-05-02T06:45:33.265Z,25.5240
2023-05-02T06:46:34.769Z,25.5219
2023-05-02T06:47:36.163Z,25.5100
2023-05-02T06:48:37.593Z,25.5318
2023-05-02T06:49:39.025Z,25.5363
2023-05-02T06:50:40.448Z,25.5410
2023-05-02T06:51:41.817Z,25.5445
2023-05-02T06:52:43.252Z,25.5437
2023-05-02T06:53:44.686Z,25.5256
2023-05-02T06:54:46.212Z,25.5203
2023-05-02T06:55:47.509Z,25.5308
2023-05-02T06:56:48.874Z,25.5367
2023-05-02T06:57:50.372Z,25.5392
2023-05-02T06:58:51.848Z,25.5261
2023-05-02T06:59:53.555Z,25.5236
2023-05-02T07:00:54.742Z,25.5390
2023-05-02T07:01:56.038Z,25.5388
2023-05-02T07:02:57.574Z,25.5441
2023-05-02T07:03:58.927Z,25.5606
2023-05-02T07:05:00.334Z,25.5729
2023-05-02T07:06:01.715Z,25.5930
2023-05-02T07:07:03.144Z,25.6062
2023-05-02T07:08:04.530Z,25.5924
2023-05-02T07:09:06.026Z,25.5887
2023-05-02T07:10:07.398Z,25.5850
2023-05-02T07:11:08.872Z,25.5934
2023-05-02T07:12:10.213Z,25.5922
2023-05-02T07:13:11.688Z,25.6074
2023-05-02T07:14:13.026Z,25.6058
2023-05-02T07:15:14.550Z,25.6078
2023-05-02T07:16:15.864Z,25.6111
2023-05-02T07:17:17.359Z,25.6008
2023-05-02T07:18:18.830Z,25.5947
2023-05-02T07:19:20.250Z,25.5830
2023-05-02T07:20:21.698Z,25.5754
2023-05-02T07:21:23.052Z,25.5788
2023-05-02T07:22:24.470Z,25.5694
2023-05-02T07:23:25.845Z,25.5704
2023-05-02T07:24:27.307Z,25.5706
2023-05-02T07:25:28.735Z,25.5663
2023-05-02T07:26:30.173Z,25.5690
2023-05-02T07:27:31.560Z,25.5764
2023-05-02T07:28:33.001Z,25.5805
2023-05-02T07:29:34.412Z,25.5856
2023-05-02T07:30:35.857Z,25.5799
2023-05-02T07:31:37.237Z,25.5846
2023-05-02T07:32:38.681Z,25.5774
2023-05-02T07:33:40.047Z,25.5636
2023-05-02T07:34:41.406Z,25.5641
2023-05-02T07:35:42.980Z,25.5688
2023-05-02T07:36:44.364Z,25.5918
2023-05-02T07:37:45.713Z,25.5992
2023-05-02T07:38:47.199Z,25.5969
2023-05-02T07:39:48.553Z,25.6023
2023-05-02T07:40:50.053Z,25.6066
2023-05-02T07:41:51.456Z,25.5965
2023-05-02T07:42:52.849Z,25.5957
2023-05-02T07:43:54.234Z,25.5895
2023-05-02T07:44:55.689Z,25.5714
2023-05-02T07:45:57.172Z,25.5850
2023-05-02T07:46:58.584Z,25.5717
2023-05-02T07:47:59.957Z,25.5712
2023-05-02T07:49:01.379Z,25.5766
2023-05-02T07:50:03.006Z,25.5809
2023-05-02T07:51:04.289Z,25.5700
2023-05-02T07:52:05.693Z,25.5700
2023-05-02T07:53:07.077Z,25.5717
2023-05-02T07:54:08.480Z,25.5741
2023-05-02T07:55:09.944Z,25.5686
2023-05-02T07:56:11.388Z,25.5655
2023-05-02T07:57:12.807Z,25.5651
2023-05-02T07:58:14.193Z,25.5770
2023-05-02T07:59:15.610Z,25.5747
2023-05-02T08:00:17.017Z,25.5727
2023-05-02T08:01:18.543Z,25.5626
2023-05-02T08:02:20.034Z,25.5747
2023-05-02T08:03:21.451Z,25.5731
2023-05-02T08:04:22.896Z,25.5774
2023-05-02T08:05:24.165Z,25.5922
2023-05-02T08:06:25.689Z,25.5852
2023-05-02T08:07:27.046Z,25.5797
2023-05-02T08:08:28.373Z,25.5706
2023-05-02T08:09:29.845Z,25.5828
2023-05-02T08:10:31.257Z,25.5860
2023-05-02T08:11:32.677Z,25.5912
2023-05-02T08:12:34.180Z,25.5665
2023-05-02T08:13:35.640Z,25.5756
2023-05-02T08:14:36.912Z,25.5819
2023-05-02T08:15:38.585Z,25.5608
2023-05-02T08:16:40.040Z,25.5661
2023-05-02T08:17:41.355Z,25.5671
2023-05-02T08:18:42.674Z,25.5591
2023-05-02T08:19:44.065Z,25.5618
2023-05-02T08:20:45.514Z,25.5528
2023-05-02T08:21:46.960Z,25.5645
2023-05-02T08:22:48.397Z,25.5704
2023-05-02T08:23:49.799Z,25.5694
2023-05-02T08:24:51.175Z,25.5608
2023-05-02T08:25:52.616Z,25.5491
2023-05-02T08:26:54.074Z,25.5569
2023-05-02T08:27:55.493Z,25.5528
2023-05-02T08:28:56.917Z,25.5466
2023-05-02T08:30:00.658Z,25.5569
2023-05-02T08:30:59.697Z,25.5723
2023-05-02T08:32:01.280Z,25.5745
2023-05-02T08:33:02.618Z,25.5704
2023-05-02T08:34:04.009Z,25.5754
2023-05-02T08:35:05.424Z,25.6062
2023-05-02T08:36:06.852Z,25.6043
2023-05-02T08:37:08.299Z,25.6006
2023-05-02T08:38:09.732Z,25.5932
2023-05-02T08:39:11.093Z,25.5807
2023-05-02T08:40:12.550Z,25.5776
2023-05-02T08:41:13.958Z,25.5834
2023-05-02T08:42:15.359Z,25.5887
2023-05-02T08:43:16.797Z,25.5862
2023-05-02T08:44:18.207Z,25.5721
2023-05-02T08:45:19.555Z,25.5669
2023-05-02T08:46:21.011Z,25.5567
2023-05-02T08:47:22.617Z,25.5636
2023-05-02T08:48:23.953Z,25.5733
2023-05-02T08:49:25.323Z,25.5581
2023-05-02T08:50:26.772Z,25.5482
2023-05-02T08:51:28.088Z,25.5552
2023-05-02T08:52:29.506Z,25.5680
2023-05-02T08:53:31.027Z,25.5602
2023-05-02T08:54:32.422Z,25.5482
2023-05-02T08:55:33.748Z,25.5639
2023-05-02T08:56:35.205Z,25.5565
2023-05-02T08:57:36.668Z,25.5618
2023-05-02T08:58:38.154Z,25.5735
2023-05-02T08:59:39.546Z,25.5895
2023-05-02T09:00:40.991Z,25.5959
2023-05-02T09:01:42.371Z,25.6004
2023-05-02T09:02:43.865Z,25.5885
2023-05-02T09:03:45.205Z,25.5901
2023-05-02T09:04:46.769Z,25.6019
2023-05-02T09:05:47.999Z,25.6051
2023-05-02T09:06:49.499Z,25.5984
2023-05-02T09:07:50.832Z,25.6103
2023-05-02T09:08:52.276Z,25.5998
2023-05-02T09:09:53.729Z,25.5982
2023-05-02T09:10:55.213Z,25.5947
2023-05-02T09:11:56.475Z,25.6072
2023-05-02T09:12:57.981Z,25.6099
2023-05-02T09:13:59.388Z,25.6049
2023-05-02T09:15:01.033Z,25.5947
2023-05-02T09:16:02.208Z,25.5891
2023-05-02T09:17:03.844Z,25.5862
2023-05-02T09:18:05.151Z,25.6006
2023-05-02T09:19:06.497Z,25.6035
2023-05-02T09:20:07.913Z,25.5992
2023-05-02T09:21:09.379Z,25.6004
2023-05-02T09:22:10.791Z,25.5926
2023-05-02T09:23:12.249Z,25.5914
2023-05-02T09:24:13.677Z,25.5908
2023-05-02T09:25:15.098Z,25.6035
2023-05-02T09:26:16.464Z,25.6060
2023-05-02T09:27:17.900Z,25.6107
2023-05-02T09:28:19.270Z,25.6078
2023-05-02T09:29:20.714Z,25.6158
2023-05-02T09:30:22.235Z,25.6364
2023-05-02T09:32:24.987Z,25.5994
2023-05-02T09:33:26.467Z,25.6039
2023-05-02T09:34:27.825Z,25.5996
2023-05-02T09:35:29.326Z,25.5934
2023-05-02T09:36:30.727Z,25.5934
2023-05-02T09:37:32.182Z,25.5955
2023-05-02T09:38:33.529Z,25.5869
2023-05-02T09:39:34.973Z,25.5943
2023-05-02T09:40:36.399Z,25.5940
2023-05-02T09:41:37.858Z,25.5864
2023-05-02T09:42:39.230Z,25.5721
2023-05-02T09:43:40.683Z,25.5616
2023-05-02T09:44:42.061Z,25.5684
2023-05-02T09:45:43.592Z,25.5622
2023-05-02T09:46:45.034Z,25.5725
2023-05-02T09:47:46.361Z,25.5881
2023-05-02T09:48:47.776Z,25.5828
2023-05-02T09:49:49.241Z,25.5963
2023-05-02T09:50:50.691Z,25.5893
2023-05-02T09:51:52.153Z,25.5850
2023-05-02T09:52:53.499Z,25.6097
2023-05-02T09:53:54.984Z,25.6294
2023-05-02T09:54:56.363Z,25.6263
2023-05-02T09:55:57.840Z,25.6296
2023-05-02T09:56:59.225Z,25.6462
2023-05-02T09:58:00.594Z,25.6325
2023-05-02T09:59:02.050Z,25.6429
2023-05-02T10:00:03.756Z,25.6425
2023-05-02T10:01:05.002Z,25.6275
2023-05-02T10:02:06.323Z,25.6253
2023-05-02T10:03:07.823Z,25.6183
2023-05-02T10:04:09.658Z,25.6220
2023-05-02T10:05:10.615Z,25.6364
2023-05-02T10:06:12.158Z,25.6518
2023-05-02T10:07:13.568Z,25.6571
2023-05-02T10:08:14.902Z,25.6286
2023-05-02T10:09:19.783Z,25.6440
2023-05-02T10:10:17.707Z,25.6378
2023-05-02T10:11:19.242Z,25.6625
2023-05-02T10:12:20.570Z,25.6456
2023-05-02T10:13:21.988Z,25.6503
2023-05-02T10:14:23.402Z,25.6853
2023-05-02T10:15:24.820Z,25.6805
2023-05-02T10:16:26.282Z,25.6768
2023-05-02T10:17:27.730Z,25.6653
2023-05-02T10:18:29.097Z,25.6608
2023-05-02T10:19:30.492Z,25.6939
2023-05-02T10:20:31.970Z,25.6968
2023-05-02T10:21:33.429Z,25.6855
2023-05-02T10:22:34.835Z,25.6680
2023-05-02T10:23:36.142Z,25.6809
2023-05-02T10:24:37.645Z,25.6970
2023-05-02T10:25:39.050Z,25.7202
2023-05-02T10:26:40.474Z,25.7259
2023-05-02T10:27:41.876Z,25.7366
2023-05-02T10:28:43.407Z,25.7220
2023-05-02T10:29:44.701Z,25.7154
2023-05-02T10:30:46.134Z,25.7313
2023-05-02T10:31:47.603Z,25.7218
2023-05-02T10:32:49.053Z,25.7126
2023-05-02T10:33:50.424Z,25.7179
2023-05-02T10:34:51.831Z,25.7233
2023-05-02T10:35:53.240Z,25.7044
2023-05-02T10:36:54.675Z,25.7171
2023-05-02T10:37:56.105Z,25.7243
2023-05-02T10:38:57.589Z,25.7356
2023-05-02T10:39:58.984Z,25.7461
2023-05-02T10:41:00.337Z,25.7368
2023-05-02T10:42:01.759Z,25.7409
2023-05-02T10:43:03.187Z,25.7584
2023-05-02T10:44:04.676Z,25.7769
2023-05-02T10:45:06.025Z,25.7707
2023-05-02T10:46:07.478Z,25.7658
2023-05-02T10:47:08.834Z,25.7551
2023-05-02T10:48:10.402Z,25.7592
2023-05-02T10:49:11.713Z,25.7444
2023-05-02T10:50:13.167Z,25.7804
2023-05-02T10:51:14.554Z,25.7588
2023-05-02T10:52:15.888Z,25.7417
2023-05-02T10:53:17.395Z,25.7514
2023-05-02T10:54:18.858Z,25.7656
2023-05-02T10:55:20.214Z,25.7738
2023-05-02T10:56:21.679Z,25.7775
2023-05-02T10:57:23.029Z,25.7806
2023-05-02T10:58:24.559Z,25.7990
2023-05-02T10:59:25.924Z,25.8034
2023-05-02T11:00:27.398Z,25.7871
2023-05-02T11:01:28.858Z,25.7820
2023-05-02T11:02:30.227Z,25.7765
2023-05-02T11:03:31.620Z,25.7910
2023-05-02T11:04:33.056Z,25.8145
2023-05-02T11:05:34.427Z,25.8272
2023-05-02T11:06:35.908Z,25.8122
2023-05-02T11:07:37.232Z,25.7867
2023-05-02T11:08:38.617Z,25.7978
2023-05-02T11:09:40.128Z,25.8184
2023-05-02T11:10:41.575Z,25.8366
2023-05-02T11:11:43.299Z,25.8562
2023-05-02T11:12:44.309Z,25.8824
2023-05-02T11:13:45.778Z,25.8787
2023-05-02T11:14:47.314Z,25.8280
2023-05-02T11:15:48.678Z,25.8512
2023-05-02T11:16:50.085Z,25.8843
2023-05-02T11:17:51.448Z,25.8870
2023-05-02T11:18:52.875Z,25.9079
2023-05-02T11:19:54.318Z,25.8880
2023-05-02T11:20:55.765Z,25.8549
2023-05-02T11:21:57.119Z,25.8660
2023-05-02T11:22:58.604Z,25.8553
2023-05-02T11:23:59.933Z,25.8697
2023-05-02T11:25:01.748Z,25.8958
2023-05-02T11:26:02.859Z,25.9278
2023-05-02T11:27:04.245Z,25.9324
2023-05-02T11:28:05.681Z,25.9428
2023-05-02T11:29:07.090Z,25.9677
2023-05-02T11:30:08.491Z,25.9480
2023-05-02T11:31:09.974Z,25.9556
2023-05-02T11:32:11.348Z,25.9796
2023-05-02T11:33:12.808Z,25.9773
2023-05-02T11:34:14.141Z,25.9917
2023-05-02T11:35:15.612Z,26.0008
2023-05-02T11:36:17.152Z,26.0178
2023-05-02T11:37:18.449Z,26.0203
2023-05-02T11:38:19.878Z,26.0145
2023-05-02T11:39:21.302Z,26.0231
2023-05-02T11:40:22.722Z,26.0307
2023-05-02T11:41:24.195Z,26.0332
2023-05-02T11:42:25.554Z,26.0351
2023-05-02T11:43:28.165Z,26.0377
2023-05-02T11:44:28.360Z,26.0067
2023-05-02T11:45:29.884Z,26.0125
2023-05-02T11:46:31.340Z,26.0141
2023-05-02T11:47:32.762Z,26.0221
2023-05-02T11:48:34.161Z,26.0182
2023-05-02T11:49:35.527Z,26.0106
2023-05-02T11:50:37.728Z,26.0209
2023-05-02T11:51:38.426Z,26.0318
2023-05-02T11:52:39.746Z,26.0357
2023-05-02T11:53:41.250Z,26.0307
2023-05-02T11:54:42.613Z,26.0242
2023-05-02T11:55:44.022Z,26.0310
2023-05-02T11:56:45.510Z,26.0310
2023-05-02T11:57:46.977Z,26.0164
2023-05-02T11:58:48.288Z,26.0112
2023-05-02T11:59:49.758Z,26.0221
2023-05-02T12:00:51.147Z,26.0162
2023-05-02T12:01:52.625Z,26.0153
2023-05-02T12:02:54.064Z,26.0287
2023-05-02T12:03:55.531Z,26.0221
2023-05-02T12:04:56.811Z,26.0353
2023-05-02T12:05:58.285Z,26.0346
2023-05-02T12:06:59.708Z,26.0357
2023-05-02T12:08:01.180Z,26.0336
2023-05-02T12:09:02.493Z,26.0408
2023-05-02T12:10:03.974Z,26.0131
2023-05-02T12:11:05.344Z,26.0143
2023-05-02T12:12:06.852Z,26.0188
2023-05-02T12:13:10.103Z,26.0209
2023-05-02T12:14:09.633Z,26.0164
2023-05-02T12:15:11.134Z,26.0215
2023-05-02T12:16:12.618Z,26.0231
2023-05-02T12:17:13.931Z,26.0065
2023-05-02T12:18:15.395Z,26.0069
2023-05-02T12:19:16.823Z,26.0092
2023-05-02T12:20:18.295Z,25.9888
2023-05-02T12:21:19.636Z,25.9827
2023-05-02T12:22:21.121Z,25.9837
2023-05-02T12:23:22.505Z,25.9973